createdAt,value
2023-04-11T00:00:14.468Z,2.57
2023-04-11T00:02:41.875Z,2.70
2023-04-11T00:05:09.601Z,2.57
2023-04-11T00:07:37.032Z,2.60
2023-04-11T00:10:04.999Z,2.80
2023-04-11T00:12:32.299Z,2.80
2023-04-11T00:14:59.474Z,2.13
2023-04-11T00:17:26.664Z,2.23
2023-04-11T00:19:53.797Z,2.73
2023-04-11T00:22:21.289Z,2.30
2023-04-11T00:24:48.393Z,2.50
2023-04-11T00:27:15.608Z,2.10
2023-04-11T00:29:42.797Z,2.60
2023-04-11T00:32:10.228Z,2.87
2023-04-11T00:34:37.401Z,2.67
2023-04-11T00:37:04.519Z,2.60
2023-04-11T00:39:31.727Z,2.77
2023-04-11T00:42:08.733Z,2.63
2023-04-11T00:44:36.650Z,2.60
2023-04-11T00:47:10.216Z,2.67
2023-04-11T00:49:38.636Z,2.80
2023-04-11T00:52:06.943Z,2.83
2023-04-11T00:54:34.491Z,2.80
2023-04-11T00:57:04.753Z,2.70
2023-04-11T00:59:33.651Z,2.70
2023-04-11T01:02:01.504Z,2.87
2023-04-11T01:04:29.147Z,2.40
2023-04-11T01:07:04.411Z,2.57
2023-04-11T01:09:34.723Z,2.40
2023-04-11T01:12:05.111Z,2.50
2023-04-11T01:14:32.398Z,2.60
2023-04-11T01:17:01.564Z,2.40
2023-04-11T01:19:29.713Z,2.53
2023-04-11T01:21:59.559Z,2.83
2023-04-11T01:24:27.591Z,2.80
2023-04-11T01:26:55.159Z,2.90
2023-04-11T01:29:22.448Z,2.83
2023-04-11T01:31:51.590Z,2.83
2023-04-11T01:34:20.938Z,2.63
2023-04-11T01:36:48.573Z,2.80
2023-04-11T01:39:16.078Z,2.43
2023-04-11T01:41:44.806Z,2.37
2023-04-11T01:44:12.629Z,2.87
2023-04-11T01:46:39.984Z,2.90
2023-04-11T01:49:07.302Z,2.60
2023-04-11T01:51:34.917Z,3.00
2023-04-11T01:54:02.133Z,2.43
2023-04-11T01:56:29.485Z,2.80
2023-04-11T01:58:56.932Z,2.80
2023-04-11T02:01:24.259Z,2.53
2023-04-11T02:03:51.557Z,2.73
2023-04-11T02:06:18.967Z,3.23
2023-04-11T02:08:46.228Z,3.10
2023-04-11T02:11:13.401Z,2.90
2023-04-11T02:13:40.530Z,3.20
2023-04-11T02:16:13.176Z,3.10
2023-04-11T02:18:41.987Z,2.80
2023-04-11T02:21:09.260Z,3.30
2023-04-11T02:23:36.904Z,3.33
2023-04-11T02:26:04.532Z,3.07
2023-04-11T02:28:31.620Z,2.97
2023-04-11T02:30:58.871Z,2.80
2023-04-11T02:33:26.168Z,2.60
2023-04-11T02:35:53.620Z,3.27
2023-04-11T02:38:20.963Z,3.23
2023-04-11T02:40:48.556Z,3.10
2023-04-11T02:43:15.759Z,2.97
2023-04-11T02:45:43.535Z,2.90
2023-04-11T02:48:10.769Z,2.90
2023-04-11T02:50:38.212Z,3.20
2023-04-11T02:53:05.353Z,3.07
2023-04-11T02:55:32.499Z,3.10
2023-04-11T02:58:00.037Z,3.03
2023-04-11T03:00:27.199Z,3.03
2023-04-11T03:02:54.403Z,3.00
2023-04-11T03:05:21.634Z,2.80
2023-04-11T03:07:48.772Z,2.83
2023-04-11T03:10:16.262Z,3.10
2023-04-11T03:12:43.597Z,3.73
2023-04-11T03:15:11.146Z,3.50
2023-04-11T03:17:38.368Z,4.10
2023-04-11T03:20:06.671Z,3.43
2023-04-11T03:22:33.830Z,3.50
2023-04-11T03:25:01.216Z,3.20
2023-04-11T03:27:28.651Z,3.40
2023-04-11T03:29:56.233Z,3.47
2023-04-11T03:32:23.900Z,3.30
2023-04-11T03:34:51.479Z,3.83
2023-04-11T03:37:18.587Z,3.80
2023-04-11T03:39:45.967Z,4.60
2023-04-11T03:42:13.191Z,4.93
2023-04-11T03:44:40.489Z,4.67
2023-04-11T03:47:07.749Z,3.77
2023-04-11T03:49:34.914Z,4.37
2023-04-11T03:52:02.181Z,4.20
2023-04-11T03:54:29.302Z,4.20
2023-04-11T03:56:56.435Z,5.37
2023-04-11T03:59:23.618Z,4.97
2023-04-11T04:01:50.802Z,4.63
2023-04-11T04:04:17.969Z,4.63
2023-04-11T04:06:45.187Z,4.57
2023-04-11T04:09:12.442Z,5.40
2023-04-11T04:11:39.680Z,5.87
2023-04-11T04:14:06.766Z,5.83
2023-04-11T04:16:33.922Z,6.00
2023-04-11T04:19:01.594Z,5.00
2023-04-11T04:21:30.243Z,5.77
2023-04-11T04:23:57.812Z,5.20
2023-04-11T04:26:25.362Z,4.20
2023-04-11T04:28:52.511Z,3.80
2023-04-11T04:31:19.714Z,3.87
2023-04-11T04:33:47.689Z,4.30
2023-04-11T04:36:14.961Z,4.30
2023-04-11T04:38:42.169Z,5.10
2023-04-11T04:41:09.513Z,4.10
2023-04-11T04:43:36.685Z,5.10
2023-04-11T04:46:04.050Z,5.10
2023-04-11T04:48:31.218Z,5.37
2023-04-11T04:50:58.525Z,4.80
2023-04-11T04:53:25.673Z,4.83
2023-04-11T04:55:52.892Z,7.00
2023-04-11T04:58:20.043Z,8.00
2023-04-11T05:00:47.231Z,8.70
2023-04-11T05:03:14.501Z,21.33
2023-04-11T05:05:41.757Z,7.50
2023-04-11T05:08:08.998Z,7.13
2023-04-11T05:10:36.416Z,5.77
2023-04-11T05:13:03.643Z,5.40
2023-04-11T05:15:30.819Z,4.50
2023-04-11T05:17:58.019Z,6.73
2023-04-11T05:20:25.215Z,6.20
2023-04-11T05:22:53.003Z,6.70
2023-04-11T05:25:20.312Z,6.57
2023-04-11T05:27:47.443Z,6.17
2023-04-11T05:30:14.909Z,5.93
2023-04-11T05:32:42.351Z,6.37
2023-04-11T05:35:10.078Z,7.70
2023-04-11T05:37:37.264Z,13.27
2023-04-11T05:40:05.084Z,14.90
2023-04-11T05:42:32.238Z,9.13
2023-04-11T05:44:59.364Z,5.83
2023-04-11T05:47:26.640Z,5.37
2023-04-11T05:49:53.784Z,5.00
2023-04-11T05:52:20.896Z,4.50
2023-04-11T05:54:48.072Z,3.60
2023-04-11T05:57:15.287Z,4.03
2023-04-11T05:59:42.364Z,5.17
2023-04-11T06:02:09.750Z,5.53
2023-04-11T06:04:37.109Z,5.13
2023-04-11T06:07:04.682Z,5.60
2023-04-11T06:09:33.911Z,5.30
2023-04-11T06:12:01.496Z,5.70
2023-04-11T06:14:28.733Z,5.97
2023-04-11T06:16:55.930Z,4.93
2023-04-11T06:19:23.099Z,5.57
2023-04-11T06:21:50.244Z,4.37
2023-04-11T06:24:17.679Z,4.60
2023-04-11T06:26:45.120Z,4.40
2023-04-11T06:29:12.316Z,4.50
2023-04-11T06:31:40.514Z,5.07
2023-04-11T06:34:07.738Z,4.40
2023-04-11T06:36:34.857Z,4.50
2023-04-11T06:39:01.972Z,4.67
2023-04-11T06:41:29.801Z,4.43
2023-04-11T06:43:57.338Z,4.00
2023-04-11T06:46:24.877Z,5.00
2023-04-11T06:48:52.078Z,5.23
2023-04-11T06:51:19.305Z,6.30
2023-04-11T06:53:46.387Z,6.70
2023-04-11T06:56:13.499Z,8.73
2023-04-11T06:58:40.646Z,7.90
2023-04-11T07:01:07.920Z,6.27
2023-04-11T07:03:35.550Z,6.00
2023-04-11T07:06:02.913Z,5.37
2023-04-11T07:08:31.843Z,4.87
2023-04-11T07:10:59.907Z,5.40
2023-04-11T07:13:27.037Z,5.40
2023-04-11T07:15:54.341Z,5.43
2023-04-11T07:18:22.682Z,5.00
2023-04-11T07:20:49.833Z,4.83
2023-04-11T07:23:17.133Z,4.93
2023-04-11T07:25:44.554Z,5.10
2023-04-11T07:28:12.286Z,4.70
2023-04-11T07:30:39.493Z,5.63
2023-04-11T07:33:06.788Z,5.57
2023-04-11T07:35:34.920Z,4.80
2023-04-11T07:38:02.240Z,4.43
2023-04-11T07:40:30.485Z,4.57
2023-04-11T07:43:00.904Z,4.00
2023-04-11T07:45:39.186Z,4.50
2023-04-11T07:48:11.350Z,5.57
2023-04-11T07:50:46.820Z,5.17
2023-04-11T07:53:14.233Z,4.60
2023-04-11T07:55:41.600Z,4.40
2023-04-11T07:58:09.165Z,4.80
2023-04-11T08:00:36.357Z,5.13
2023-04-11T08:03:09.102Z,4.73
2023-04-11T08:05:37.632Z,5.10
2023-04-11T08:08:06.453Z,4.63
2023-04-11T08:10:34.349Z,4.30
2023-04-11T08:13:01.827Z,7.13
2023-04-11T08:15:29.063Z,5.23
2023-04-11T08:17:57.096Z,4.93
2023-04-11T08:20:24.887Z,4.93
2023-04-11T08:22:52.056Z,4.80
2023-04-11T08:25:19.735Z,4.50
2023-04-11T08:27:46.872Z,4.83
2023-04-11T08:30:15.087Z,6.07
2023-04-11T08:32:42.367Z,4.30
2023-04-11T08:35:10.257Z,4.53
2023-04-11T08:37:37.433Z,4.13
2023-04-11T08:40:05.233Z,4.13
2023-04-11T08:42:32.857Z,3.80
2023-04-11T08:45:04.318Z,4.20
2023-04-11T08:47:31.878Z,4.30
2023-04-11T08:49:59.078Z,3.90
2023-04-11T08:52:26.495Z,4.30
2023-04-11T08:54:55.141Z,3.63
2023-04-11T08:57:30.743Z,3.37
2023-04-11T09:00:00.848Z,3.93
2023-04-11T09:02:28.212Z,3.40
2023-04-11T09:04:55.530Z,3.57
2023-04-11T09:07:22.763Z,3.33
2023-04-11T09:09:50.110Z,3.50
2023-04-11T09:12:29.721Z,3.13
2023-04-11T09:14:57.008Z,3.00
2023-04-11T09:17:24.333Z,3.40
2023-04-11T09:19:51.518Z,3.20
2023-04-11T09:22:18.588Z,3.93
2023-04-11T09:25:03.082Z,3.27
2023-04-11T09:27:30.249Z,3.33
2023-04-11T09:29:57.387Z,3.27
2023-04-11T09:32:31.193Z,3.73
2023-04-11T09:35:18.230Z,3.53
2023-04-11T09:37:50.917Z,3.33
2023-04-11T09:40:22.250Z,3.57
2023-04-11T09:42:59.920Z,3.40
2023-04-11T09:45:32.092Z,3.30
2023-04-11T09:48:01.401Z,3.33
2023-04-11T09:50:28.938Z,2.87
2023-04-11T09:52:58.490Z,3.60
2023-04-11T09:55:26.623Z,3.10
2023-04-11T09:57:55.012Z,3.77
2023-04-11T10:00:25.787Z,3.43
2023-04-11T10:02:53.904Z,5.33
2023-04-11T10:05:27.018Z,4.23
2023-04-11T10:08:14.225Z,6.80
2023-04-11T10:10:44.084Z,4.20
2023-04-11T10:13:43.219Z,4.57
2023-04-11T10:16:19.181Z,4.43
2023-04-11T10:18:55.225Z,4.17
2023-04-11T10:21:30.934Z,4.10
2023-04-11T10:24:16.986Z,3.87
2023-04-11T10:27:36.706Z,4.03
2023-04-11T10:30:04.249Z,4.57
2023-04-11T10:32:31.439Z,4.10
2023-04-11T10:34:58.527Z,4.10
2023-04-11T10:37:36.746Z,3.73
2023-04-11T10:40:09.039Z,3.33
2023-04-11T10:42:44.898Z,3.50
2023-04-11T10:45:22.172Z,3.13
2023-04-11T10:48:01.309Z,3.63
2023-04-11T10:50:32.900Z,4.23
2023-04-11T10:53:02.672Z,3.23
2023-04-11T10:55:41.415Z,3.70
2023-04-11T10:58:12.042Z,4.13
2023-04-11T11:00:48.653Z,3.13
2023-04-11T11:03:28.097Z,3.50
2023-04-11T11:06:06.369Z,2.80
2023-04-11T11:08:39.415Z,3.20
2023-04-11T11:11:11.507Z,2.67
2023-04-11T11:13:53.957Z,3.03
2023-04-11T11:16:25.243Z,3.23
2023-04-11T11:18:57.470Z,3.30
2023-04-11T11:21:28.166Z,2.67
2023-04-11T11:24:03.629Z,2.60
2023-04-11T11:26:41.925Z,2.53
2023-04-11T11:29:11.235Z,2.67
2023-04-11T11:31:43.621Z,2.50
2023-04-11T11:34:22.793Z,3.10
2023-04-11T11:36:51.610Z,2.77
2023-04-11T11:39:21.073Z,2.93
2023-04-11T11:41:50.502Z,3.23
2023-04-11T11:44:27.053Z,2.77
2023-04-11T11:47:14.502Z,2.73
2023-04-11T11:49:52.265Z,3.10
2023-04-11T11:52:38.123Z,3.03
2023-04-11T11:55:10.500Z,3.53
2023-04-11T11:57:44.628Z,3.50
2023-04-11T12:00:12.896Z,3.60
2023-04-11T12:02:40.958Z,3.90
2023-04-11T12:05:12.265Z,4.13
2023-04-11T12:07:40.043Z,3.67
2023-04-11T12:10:13.488Z,3.70
2023-04-11T12:12:53.729Z,3.33
2023-04-11T12:15:23.486Z,3.87
2023-04-11T12:17:53.514Z,3.60
2023-04-11T12:20:26.020Z,4.00
2023-04-11T12:22:55.324Z,3.90
2023-04-11T12:25:23.330Z,3.23
2023-04-11T12:27:50.620Z,3.57
2023-04-11T12:30:18.198Z,3.57
2023-04-11T12:32:46.035Z,3.73
2023-04-11T12:35:13.569Z,4.03
2023-04-11T12:37:40.849Z,3.73
2023-04-11T12:40:08.762Z,3.80
2023-04-11T12:42:39.163Z,4.13
2023-04-11T12:45:14.198Z,3.93
2023-04-11T12:47:41.747Z,4.40
2023-04-11T12:50:10.798Z,4.07
2023-04-11T12:52:38.332Z,3.90
2023-04-11T12:55:06.417Z,4.00
2023-04-11T12:57:33.587Z,4.03
2023-04-11T13:00:00.912Z,4.13
2023-04-11T13:02:31.261Z,3.80
2023-04-11T13:05:03.053Z,4.20
2023-04-11T13:07:30.366Z,4.10
2023-04-11T13:09:57.536Z,3.90
2023-04-11T13:12:24.888Z,3.10
2023-04-11T13:14:52.032Z,3.33
2023-04-11T13:17:19.146Z,3.67
2023-04-11T13:19:46.321Z,3.07
2023-04-11T13:22:13.700Z,3.20
2023-04-11T13:24:40.832Z,3.30
2023-04-11T13:27:07.969Z,2.83
2023-04-11T13:29:35.178Z,3.70
2023-04-11T13:32:02.910Z,3.57
2023-04-11T13:34:30.127Z,3.70
2023-04-11T13:36:57.359Z,3.47
2023-04-11T13:39:24.540Z,3.30
2023-04-11T13:41:51.885Z,3.50
2023-04-11T13:44:19.095Z,3.43
2023-04-11T13:46:46.263Z,3.50
2023-04-11T13:49:13.419Z,3.13
2023-04-11T13:51:40.769Z,3.47
2023-04-11T13:54:08.147Z,3.17
2023-04-11T13:56:35.897Z,3.20
2023-04-11T13:59:03.633Z,3.43
2023-04-11T14:01:30.855Z,3.03
2023-04-11T14:03:58.263Z,2.87
2023-04-11T14:06:25.548Z,3.00
2023-04-11T14:08:52.760Z,2.60
2023-04-11T14:11:20.110Z,2.70
2023-04-11T14:13:47.439Z,2.10
2023-04-11T14:16:14.836Z,2.20
2023-04-11T14:18:42.394Z,2.27
2023-04-11T14:21:09.838Z,2.50
2023-04-11T14:23:37.194Z,2.20
2023-04-11T14:26:05.248Z,2.50
2023-04-11T14:28:32.468Z,2.10
2023-04-11T14:30:59.766Z,2.30
2023-04-11T14:33:27.012Z,2.17
2023-04-11T14:35:54.267Z,2.27
2023-04-11T14:38:21.469Z,2.40
2023-04-11T14:40:48.622Z,2.40
2023-04-11T14:43:15.791Z,2.43
2023-04-11T14:45:42.902Z,2.40
2023-04-11T14:48:10.137Z,2.50
2023-04-11T14:50:37.369Z,2.50
2023-04-11T14:53:04.704Z,2.57
2023-04-11T14:55:32.035Z,2.37
2023-04-11T14:57:59.630Z,2.47
2023-04-11T15:00:27.335Z,2.60
2023-04-11T15:02:56.953Z,3.10
2023-04-11T15:05:24.632Z,3.30
2023-04-11T15:07:53.558Z,3.07
2023-04-11T15:10:24.890Z,3.43
2023-04-11T15:12:53.464Z,3.00
2023-04-11T15:15:20.682Z,3.40
2023-04-11T15:18:09.686Z,2.70
2023-04-11T15:20:36.999Z,3.33
2023-04-11T15:23:04.179Z,2.70
2023-04-11T15:25:31.312Z,2.63
2023-04-11T15:27:58.471Z,2.40
2023-04-11T15:30:25.771Z,2.93
2023-04-11T15:32:53.029Z,2.50
2023-04-11T15:35:20.296Z,2.67
2023-04-11T15:37:47.426Z,2.30
2023-04-11T15:40:14.695Z,2.40
2023-04-11T15:42:42.002Z,2.37
2023-04-11T15:45:09.676Z,2.00
2023-04-11T15:47:36.902Z,2.30
2023-04-11T15:50:04.421Z,2.50
2023-04-11T15:52:31.663Z,2.33
2023-04-11T15:54:58.766Z,2.30
2023-04-11T15:57:26.474Z,2.00
2023-04-11T15:59:53.630Z,2.13
2023-04-11T16:02:20.842Z,2.03
2023-04-11T16:04:49.191Z,2.53
2023-04-11T16:07:17.156Z,2.00
2023-04-11T16:09:44.789Z,2.30
2023-04-11T16:12:12.071Z,2.00
2023-04-11T16:14:39.283Z,2.10
2023-04-11T16:17:06.530Z,1.80
2023-04-11T16:19:34.034Z,1.60
2023-04-11T16:22:01.505Z,2.03
2023-04-11T16:24:29.830Z,1.90
2023-04-11T16:26:56.960Z,1.90
2023-04-11T16:29:24.303Z,1.60
2023-04-11T16:31:51.719Z,1.50
2023-04-11T16:34:19.132Z,1.40
2023-04-11T16:36:46.411Z,2.13
2023-04-11T16:39:13.786Z,1.30
2023-04-11T16:41:41.012Z,1.40
2023-04-11T16:44:08.944Z,1.50
2023-04-11T16:46:43.003Z,1.37
2023-04-11T16:49:11.251Z,1.80
2023-04-11T16:51:38.598Z,2.43
2023-04-11T16:54:06.361Z,1.40
2023-04-11T16:56:33.933Z,1.40
2023-04-11T16:59:01.470Z,1.27
2023-04-11T17:01:28.700Z,1.53
2023-04-11T17:03:56.254Z,1.93
2023-04-11T17:06:24.392Z,1.27
2023-04-11T17:08:52.060Z,1.40
2023-04-11T17:11:27.721Z,1.50
2023-04-11T17:13:55.452Z,1.30
2023-04-11T17:16:23.260Z,1.90
2023-04-11T17:18:50.734Z,1.30
2023-04-11T17:21:18.045Z,1.13
2023-04-11T17:23:47.141Z,1.30
2023-04-11T17:26:20.250Z,1.57
2023-04-11T17:28:47.877Z,1.10
2023-04-11T17:31:17.645Z,1.40
2023-04-11T17:33:53.276Z,1.43
2023-04-11T17:36:20.668Z,1.83
2023-04-11T17:38:48.808Z,4.90
2023-04-11T17:41:16.264Z,2.77
2023-04-11T17:43:44.187Z,1.40
2023-04-11T17:46:11.425Z,1.30
2023-04-11T17:48:38.641Z,2.03
2023-04-11T17:51:06.508Z,4.67
2023-04-11T17:53:34.133Z,7.37
2023-04-11T17:56:05.429Z,1.70
2023-04-11T17:58:32.549Z,3.20
2023-04-11T18:01:00.168Z,5.90
2023-04-11T18:03:27.548Z,2.90
2023-04-11T18:05:55.025Z,4.90
2023-04-11T18:08:32.186Z,3.77
2023-04-11T18:11:04.145Z,7.63
2023-04-11T18:13:31.677Z,3.87
2023-04-11T18:15:59.075Z,1.70
2023-04-11T18:18:28.130Z,1.70
2023-04-11T18:21:03.545Z,1.40
2023-04-11T18:23:32.582Z,1.20
2023-04-11T18:26:00.158Z,1.40
2023-04-11T18:28:27.764Z,1.17
2023-04-11T18:30:55.228Z,2.60
2023-04-11T18:33:22.542Z,2.30
2023-04-11T18:35:51.547Z,1.83
2023-04-11T18:38:19.084Z,1.20
2023-04-11T18:40:46.512Z,1.40
2023-04-11T18:43:14.553Z,1.20
2023-04-11T18:45:43.304Z,1.10
2023-04-11T18:48:11.493Z,1.20
2023-04-11T18:50:39.187Z,1.00
2023-04-11T18:53:10.333Z,1.00
2023-04-11T18:55:40.624Z,1.03
2023-04-11T18:58:10.115Z,0.87
2023-04-11T19:00:39.684Z,1.10
2023-04-11T19:03:07.655Z,1.00
2023-04-11T19:05:36.164Z,1.30
2023-04-11T19:08:03.792Z,1.50
2023-04-11T19:10:31.937Z,1.30
2023-04-11T19:12:59.364Z,0.90
2023-04-11T19:15:26.835Z,1.00
2023-04-11T19:17:54.809Z,0.90
2023-04-11T19:20:22.047Z,0.90
2023-04-11T19:22:49.472Z,0.90
2023-04-11T19:25:16.630Z,1.00
2023-04-11T19:27:43.796Z,1.00
2023-04-11T19:30:12.262Z,0.97
2023-04-11T19:32:40.221Z,0.90
2023-04-11T19:35:09.584Z,0.90
2023-04-11T19:37:38.032Z,0.80
2023-04-11T19:40:07.655Z,1.10
2023-04-11T19:42:35.389Z,0.80
2023-04-11T19:45:03.951Z,1.07
2023-04-11T19:47:31.211Z,0.90
2023-04-11T19:49:58.806Z,0.80
2023-04-11T19:52:26.956Z,0.90
2023-04-11T19:54:55.652Z,0.93
2023-04-11T19:57:26.519Z,1.00
2023-04-11T19:59:53.917Z,0.90
2023-04-11T20:02:21.239Z,0.80
2023-04-11T20:04:48.871Z,1.00
2023-04-11T20:07:16.641Z,1.00
2023-04-11T20:09:44.446Z,1.00
2023-04-11T20:12:12.409Z,1.07
2023-04-11T20:14:40.034Z,1.00
2023-04-11T20:17:07.656Z,1.10
2023-04-11T20:19:35.906Z,1.17
2023-04-11T20:22:04.472Z,1.10
2023-04-11T20:24:31.906Z,0.90
2023-04-11T20:26:59.735Z,1.27
2023-04-11T20:29:28.280Z,1.47
2023-04-11T20:31:57.972Z,1.30
2023-04-11T20:34:25.527Z,1.40
2023-04-11T20:36:53.075Z,1.60
2023-04-11T20:39:20.526Z,1.50
2023-04-11T20:41:48.375Z,1.90
2023-04-11T20:44:16.394Z,1.50
2023-04-11T20:46:43.806Z,1.50
2023-04-11T20:49:11.403Z,1.57
2023-04-11T20:51:38.796Z,1.63
2023-04-11T20:54:06.462Z,2.00
2023-04-11T20:56:33.661Z,1.73
2023-04-11T20:59:01.869Z,2.07
2023-04-11T21:01:30.148Z,2.10
2023-04-11T21:03:58.738Z,1.60
2023-04-11T21:06:26.448Z,1.40
2023-04-11T21:08:53.654Z,1.80
2023-04-11T21:11:21.188Z,9.50
2023-04-11T21:13:51.722Z,7.43
2023-04-11T21:16:18.959Z,6.67
2023-04-11T21:18:46.177Z,2.10
2023-04-11T21:21:13.482Z,1.60
2023-04-11T21:23:40.706Z,1.60
2023-04-11T21:26:07.934Z,1.53
2023-04-11T21:28:35.432Z,1.67
2023-04-11T21:31:03.248Z,1.83
2023-04-11T21:33:30.465Z,2.00
2023-04-11T21:35:57.948Z,1.80
2023-04-11T21:38:25.367Z,1.50
2023-04-11T21:40:53.071Z,1.70
2023-04-11T21:43:20.301Z,2.33
2023-04-11T21:45:47.480Z,1.70
2023-04-11T21:48:14.629Z,1.43
2023-04-11T21:50:41.777Z,1.30
2023-04-11T21:53:08.927Z,1.90
2023-04-11T21:55:36.266Z,1.30
2023-04-11T21:58:03.432Z,1.27
2023-04-11T22:00:30.597Z,1.13
2023-04-11T22:02:58.440Z,1.20
2023-04-11T22:05:26.096Z,1.20
2023-04-11T22:08:10.331Z,1.30
2023-04-11T22:10:46.666Z,1.30
2023-04-11T22:13:21.149Z,1.23
2023-04-11T22:15:49.284Z,1.10
2023-04-11T22:18:16.459Z,1.30
2023-04-11T22:20:45.550Z,1.20
2023-04-11T22:23:13.505Z,1.20
2023-04-11T22:25:44.451Z,1.30
2023-04-11T22:28:14.795Z,1.53
2023-04-11T22:30:41.887Z,1.50
2023-04-11T22:33:09.154Z,1.20
2023-04-11T22:35:36.839Z,1.33
2023-04-11T22:38:04.142Z,1.23
2023-04-11T22:40:31.519Z,1.17
2023-04-11T22:42:58.903Z,1.30
2023-04-11T22:45:26.142Z,1.40
2023-04-11T22:47:53.668Z,1.30
2023-04-11T22:50:21.349Z,1.50
2023-04-11T22:52:48.699Z,1.47
2023-04-11T22:55:15.990Z,1.63
2023-04-11T22:57:43.151Z,1.67
2023-04-11T23:00:11.169Z,1.90
2023-04-11T23:02:38.569Z,1.80
2023-04-11T23:05:07.966Z,2.17
2023-04-11T23:07:35.246Z,2.17
2023-04-11T23:10:02.413Z,1.87
2023-04-11T23:12:30.142Z,1.73
2023-04-11T23:14:57.593Z,1.43
2023-04-11T23:17:24.768Z,1.60
2023-04-11T23:19:52.047Z,1.70
2023-04-11T23:22:19.469Z,1.50
2023-04-11T23:24:46.943Z,1.70
2023-04-11T23:27:14.236Z,1.57
2023-04-11T23:29:41.358Z,1.53
2023-04-11T23:32:08.609Z,1.80
2023-04-11T23:34:35.696Z,2.03
2023-04-11T23:37:02.867Z,1.83
2023-04-11T23:39:30.095Z,1.63
2023-04-11T23:41:57.643Z,1.60
2023-04-11T23:44:24.859Z,1.60
2023-04-11T23:46:52.094Z,1.30
2023-04-11T23:49:19.290Z,1.30
2023-04-11T23:51:46.425Z,1.60
2023-04-11T23:54:13.777Z,1.50
2023-04-11T23:56:40.941Z,1.30
2023-04-11T23:59:08.493Z,1.50
